sensor_id;sensor_type;location;lat;lon;timestamp;temperature;humidity
29363;DHT22;16349;53.672;10.014;2023-02-04T00:00:11;4.10;99.90
29363;DHT22;16349;53.672;10.014;2023-02-04T00:02:38;4.10;99.90
29363;DHT22;16349;53.672;10.014;2023-02-04T00:05:06;4.10;99.90
29363;DHT22;16349;53.672;10.014;2023-02-04T00:07:33;4.10;99.90
29363;DHT22;16349;53.672;10.014;2023-02-04T00:10:01;4.10;99.90
29363;DHT22;16349;53.672;10.014;2023-02-04T00:12:28;4.10;99.90
29363;DHT22;16349;53.672;10.014;2023-02-04T00:14:55;4.10;99.90
29363;DHT22;16349;53.672;10.014;2023-02-04T00:17:23;4.10;99.90
29363;DHT22;16349;53.672;10.014;2023-02-04T00:19:50;4.10;99.90
29363;DHT22;16349;53.672;10.014;2023-02-04T00:22:17;4.10;99.90
29363;DHT22;16349;53.672;10.014;2023-02-04T00:24:45;4.10;99.90
29363;DHT22;16349;53.672;10.014;2023-02-04T00:27:14;4.10;99.90
29363;DHT22;16349;53.672;10.014;2023-02-04T00:29:41;4.00;99.90
29363;DHT22;16349;53.672;10.014;2023-02-04T00:32:08;4.00;99.90
29363;DHT22;16349;53.672;10.014;2023-02-04T00:34:58;4.00;99.90
29363;DHT22;16349;53.672;10.014;2023-02-04T00:37:26;3.90;99.90
29363;DHT22;16349;53.672;10.014;2023-02-04T00:39:53;3.90;99.90
29363;DHT22;16349;53.672;10.014;2023-02-04T00:42:19;3.80;99.90
29363;DHT22;16349;53.672;10.014;2023-02-04T00:44:46;3.80;99.90
29363;DHT22;16349;53.672;10.014;2023-02-04T00:47:13;3.70;99.90
29363;DHT22;16349;53.672;10.014;2023-02-04T00:49:40;3.70;99.90
29363;DHT22;16349;53.672;10.014;2023-02-04T00:52:08;3.70;99.90
29363;DHT22;16349;53.672;10.014;2023-02-04T00:54:35;3.60;99.90
29363;DHT22;16349;53.672;10.014;2023-02-04T00:57:02;3.60;99.90
29363;DHT22;16349;53.672;10.014;2023-02-04T00:59:29;3.60;99.90
29363;DHT22;16349;53.672;10.014;2023-02-04T01:01:56;3.50;99.90
29363;DHT22;16349;53.672;10.014;2023-02-04T01:04:23;3.40;99.90
29363;DHT22;16349;53.672;10.014;2023-02-04T01:06:50;3.40;99.90
29363;DHT22;16349;53.672;10.014;2023-02-04T01:09:18;3.40;99.90
29363;DHT22;16349;53.672;10.014;2023-02-04T01:11:45;3.40;99.90
29363;DHT22;16349;53.672;10.014;2023-02-04T01:14:12;3.40;99.90
29363;DHT22;16349;53.672;10.014;2023-02-04T01:16:39;3.30;99.90
29363;DHT22;16349;53.672;10.014;2023-02-04T01:19:06;3.30;99.90
29363;DHT22;16349;53.672;10.014;2023-02-04T01:21:33;3.30;99.90
29363;DHT22;16349;53.672;10.014;2023-02-04T01:24:00;3.30;99.90
29363;DHT22;16349;53.672;10.014;2023-02-04T01:26:28;3.20;99.90
29363;DHT22;16349;53.672;10.014;2023-02-04T01:28:56;3.20;99.90
29363;DHT22;16349;53.672;10.014;2023-02-04T01:31:23;3.20;99.90
29363;DHT22;16349;53.672;10.014;2023-02-04T01:33:50;3.20;99.90
29363;DHT22;16349;53.672;10.014;2023-02-04T01:36:17;3.20;99.90
29363;DHT22;16349;53.672;10.014;2023-02-04T01:38:46;3.20;99.90
29363;DHT22;16349;53.672;10.014;2023-02-04T01:41:13;3.10;99.90
29363;DHT22;16349;53.672;10.014;2023-02-04T01:43:42;3.10;99.90
29363;DHT22;16349;53.672;10.014;2023-02-04T01:46:10;3.10;99.90
29363;DHT22;16349;53.672;10.014;2023-02-04T01:48:38;3.10;99.90
29363;DHT22;16349;53.672;10.014;2023-02-04T01:51:07;3.10;99.90
29363;DHT22;16349;53.672;10.014;2023-02-04T01:53:37;3.00;99.90
29363;DHT22;16349;53.672;10.014;2023-02-04T01:56:14;3.00;99.90
29363;DHT22;16349;53.672;10.014;2023-02-04T01:59:10;3.00;99.90
29363;DHT22;16349;53.672;10.014;2023-02-04T02:01:39;3.00;99.90
29363;DHT22;16349;53.672;10.014;2023-02-04T02:04:08;3.00;99.90
29363;DHT22;16349;53.672;10.014;2023-02-04T02:06:36;3.00;99.90
29363;DHT22;16349;53.672;10.014;2023-02-04T02:09:04;3.00;99.90
29363;DHT22;16349;53.672;10.014;2023-02-04T02:11:31;3.10;99.90
29363;DHT22;16349;53.672;10.014;2023-02-04T02:13:59;3.00;99.90
29363;DHT22;16349;53.672;10.014;2023-02-04T02:16:29;3.00;99.90
29363;DHT22;16349;53.672;10.014;2023-02-04T02:18:56;3.00;99.90
29363;DHT22;16349;53.672;10.014;2023-02-04T02:21:30;3.00;99.90
29363;DHT22;16349;53.672;10.014;2023-02-04T02:24:23;3.00;99.90
29363;DHT22;16349;53.672;10.014;2023-02-04T02:26:52;3.00;99.90
29363;DHT22;16349;53.672;10.014;2023-02-04T02:29:20;3.00;99.90
29363;DHT22;16349;53.672;10.014;2023-02-04T02:31:47;3.00;99.90
29363;DHT22;16349;53.672;10.014;2023-02-04T02:34:15;2.90;99.90
29363;DHT22;16349;53.672;10.014;2023-02-04T02:36:42;2.90;99.90
29363;DHT22;16349;53.672;10.014;2023-02-04T02:39:11;2.90;99.90
29363;DHT22;16349;53.672;10.014;2023-02-04T02:41:37;2.90;99.90
29363;DHT22;16349;53.672;10.014;2023-02-04T02:44:06;2.80;99.90
29363;DHT22;16349;53.672;10.014;2023-02-04T02:46:32;2.80;99.90
29363;DHT22;16349;53.672;10.014;2023-02-04T02:48:59;2.70;99.90
29363;DHT22;16349;53.672;10.014;2023-02-04T02:51:26;2.70;99.90
29363;DHT22;16349;53.672;10.014;2023-02-04T02:53:53;2.70;99.90
29363;DHT22;16349;53.672;10.014;2023-02-04T02:56:22;2.60;99.90
29363;DHT22;16349;53.672;10.014;2023-02-04T02:58:51;2.60;99.90
29363;DHT22;16349;53.672;10.014;2023-02-04T03:01:18;2.50;99.90
29363;DHT22;16349;53.672;10.014;2023-02-04T03:03:48;2.50;99.90
29363;DHT22;16349;53.672;10.014;2023-02-04T03:06:18;2.50;99.90
29363;DHT22;16349;53.672;10.014;2023-02-04T03:08:51;2.40;99.90
29363;DHT22;16349;53.672;10.014;2023-02-04T03:11:24;2.40;99.90
29363;DHT22;16349;53.672;10.014;2023-02-04T03:14:13;2.30;99.90
29363;DHT22;16349;53.672;10.014;2023-02-04T03:16:40;2.20;99.90
29363;DHT22;16349;53.672;10.014;2023-02-04T03:19:08;2.10;99.90
29363;DHT22;16349;53.672;10.014;2023-02-04T03:21:36;2.10;99.90
29363;DHT22;16349;53.672;10.014;2023-02-04T03:24:04;2.10;99.90
29363;DHT22;16349;53.672;10.014;2023-02-04T03:26:33;2.00;99.90
29363;DHT22;16349;53.672;10.014;2023-02-04T03:29:00;2.00;99.90
29363;DHT22;16349;53.672;10.014;2023-02-04T03:31:27;2.00;99.90
29363;DHT22;16349;53.672;10.014;2023-02-04T03:33:54;2.00;99.90
29363;DHT22;16349;53.672;10.014;2023-02-04T03:36:21;2.00;99.90
29363;DHT22;16349;53.672;10.014;2023-02-04T03:38:48;1.90;99.90
29363;DHT22;16349;53.672;10.014;2023-02-04T03:41:17;1.90;99.90
29363;DHT22;16349;53.672;10.014;2023-02-04T03:43:45;1.80;99.90
29363;DHT22;16349;53.672;10.014;2023-02-04T03:46:12;1.80;99.90
29363;DHT22;16349;53.672;10.014;2023-02-04T03:48:39;1.80;99.90
29363;DHT22;16349;53.672;10.014;2023-02-04T03:51:06;1.90;99.90
29363;DHT22;16349;53.672;10.014;2023-02-04T03:53:32;1.90;99.90
29363;DHT22;16349;53.672;10.014;2023-02-04T03:55:59;2.00;99.90
29363;DHT22;16349;53.672;10.014;2023-02-04T03:58:25;2.00;99.90
29363;DHT22;16349;53.672;10.014;2023-02-04T04:00:53;2.00;99.90
29363;DHT22;16349;53.672;10.014;2023-02-04T04:03:20;2.00;99.90
29363;DHT22;16349;53.672;10.014;2023-02-04T04:05:47;2.10;99.90
29363;DHT22;16349;53.672;10.014;2023-02-04T04:08:14;2.10;99.90
29363;DHT22;16349;53.672;10.014;2023-02-04T04:10:41;2.10;99.90
29363;DHT22;16349;53.672;10.014;2023-02-04T04:13:08;2.10;99.90
29363;DHT22;16349;53.672;10.014;2023-02-04T04:15:34;2.10;99.90
29363;DHT22;16349;53.672;10.014;2023-02-04T04:18:03;2.10;99.90
29363;DHT22;16349;53.672;10.014;2023-02-04T04:20:29;2.10;99.90
29363;DHT22;16349;53.672;10.014;2023-02-04T04:22:56;2.10;99.90
29363;DHT22;16349;53.672;10.014;2023-02-04T04:25:23;2.10;99.90
29363;DHT22;16349;53.672;10.014;2023-02-04T04:27:51;2.10;99.90
29363;DHT22;16349;53.672;10.014;2023-02-04T04:30:17;2.10;99.90
29363;DHT22;16349;53.672;10.014;2023-02-04T04:32:45;2.10;99.90
29363;DHT22;16349;53.672;10.014;2023-02-04T04:35:13;2.10;99.90
29363;DHT22;16349;53.672;10.014;2023-02-04T04:37:40;2.10;99.90
29363;DHT22;16349;53.672;10.014;2023-02-04T04:40:10;2.10;99.90
29363;DHT22;16349;53.672;10.014;2023-02-04T04:42:37;2.10;99.90
29363;DHT22;16349;53.672;10.014;2023-02-04T04:45:07;2.10;99.90
29363;DHT22;16349;53.672;10.014;2023-02-04T04:47:34;2.10;99.90
29363;DHT22;16349;53.672;10.014;2023-02-04T04:50:00;2.10;99.90
29363;DHT22;16349;53.672;10.014;2023-02-04T04:52:28;2.10;99.90
29363;DHT22;16349;53.672;10.014;2023-02-04T04:54:55;2.10;99.90
29363;DHT22;16349;53.672;10.014;2023-02-04T04:57:21;2.10;99.90
29363;DHT22;16349;53.672;10.014;2023-02-04T04:59:48;2.20;99.90
29363;DHT22;16349;53.672;10.014;2023-02-04T05:02:15;2.20;99.90
29363;DHT22;16349;53.672;10.014;2023-02-04T05:04:42;2.20;99.90
29363;DHT22;16349;53.672;10.014;2023-02-04T05:07:09;2.20;99.90
29363;DHT22;16349;53.672;10.014;2023-02-04T05:09:37;2.20;99.90
29363;DHT22;16349;53.672;10.014;2023-02-04T05:12:04;2.20;99.90
29363;DHT22;16349;53.672;10.014;2023-02-04T05:14:31;2.30;99.90
29363;DHT22;16349;53.672;10.014;2023-02-04T05:16:58;2.30;99.90
29363;DHT22;16349;53.672;10.014;2023-02-04T05:19:25;2.30;99.90
29363;DHT22;16349;53.672;10.014;2023-02-04T05:21:52;2.30;99.90
29363;DHT22;16349;53.672;10.014;2023-02-04T05:24:19;2.40;99.90
29363;DHT22;16349;53.672;10.014;2023-02-04T05:26:47;2.40;99.90
29363;DHT22;16349;53.672;10.014;2023-02-04T05:29:14;2.40;99.90
29363;DHT22;16349;53.672;10.014;2023-02-04T05:31:41;2.40;99.90
29363;DHT22;16349;53.672;10.014;2023-02-04T05:34:08;2.40;99.90
29363;DHT22;16349;53.672;10.014;2023-02-04T05:36:35;2.30;99.90
29363;DHT22;16349;53.672;10.014;2023-02-04T05:39:02;2.30;99.90
29363;DHT22;16349;53.672;10.014;2023-02-04T05:41:29;2.30;99.90
29363;DHT22;16349;53.672;10.014;2023-02-04T05:43:57;2.30;99.90
29363;DHT22;16349;53.672;10.014;2023-02-04T05:46:24;2.30;99.90
29363;DHT22;16349;53.672;10.014;2023-02-04T05:48:51;2.30;99.90
29363;DHT22;16349;53.672;10.014;2023-02-04T05:51:18;2.30;99.90
29363;DHT22;16349;53.672;10.014;2023-02-04T05:53:48;2.20;99.90
29363;DHT22;16349;53.672;10.014;2023-02-04T05:56:15;2.20;99.90
29363;DHT22;16349;53.672;10.014;2023-02-04T05:58:42;2.10;99.90
29363;DHT22;16349;53.672;10.014;2023-02-04T06:01:10;2.00;99.90
29363;DHT22;16349;53.672;10.014;2023-02-04T06:03:37;2.00;99.90
29363;DHT22;16349;53.672;10.014;2023-02-04T06:06:04;2.00;99.90
29363;DHT22;16349;53.672;10.014;2023-02-04T06:08:31;1.90;99.90
29363;DHT22;16349;53.672;10.014;2023-02-04T06:10:58;1.80;99.90
29363;DHT22;16349;53.672;10.014;2023-02-04T06:13:24;1.80;99.90
29363;DHT22;16349;53.672;10.014;2023-02-04T06:15:51;1.80;99.90
29363;DHT22;16349;53.672;10.014;2023-02-04T06:18:19;1.80;99.90
29363;DHT22;16349;53.672;10.014;2023-02-04T06:21:08;1.70;99.90
29363;DHT22;16349;53.672;10.014;2023-02-04T06:23:35;1.70;99.90
29363;DHT22;16349;53.672;10.014;2023-02-04T06:26:02;1.60;99.90
29363;DHT22;16349;53.672;10.014;2023-02-04T06:28:29;1.60;99.90
29363;DHT22;16349;53.672;10.014;2023-02-04T06:30:55;1.50;99.90
29363;DHT22;16349;53.672;10.014;2023-02-04T06:33:23;1.40;99.90
29363;DHT22;16349;53.672;10.014;2023-02-04T06:35:50;1.40;99.90
29363;DHT22;16349;53.672;10.014;2023-02-04T06:38:17;1.40;99.90
29363;DHT22;16349;53.672;10.014;2023-02-04T06:40:44;1.30;99.90
29363;DHT22;16349;53.672;10.014;2023-02-04T06:43:14;1.30;99.90
29363;DHT22;16349;53.672;10.014;2023-02-04T06:45:40;1.30;99.90
29363;DHT22;16349;53.672;10.014;2023-02-04T06:48:10;1.30;99.90
29363;DHT22;16349;53.672;10.014;2023-02-04T06:50:38;1.20;99.90
29363;DHT22;16349;53.672;10.014;2023-02-04T06:53:04;1.20;99.90
29363;DHT22;16349;53.672;10.014;2023-02-04T06:55:31;1.10;99.90
29363;DHT22;16349;53.672;10.014;2023-02-04T06:57:58;1.20;99.90
29363;DHT22;16349;53.672;10.014;2023-02-04T07:00:25;1.20;99.90
29363;DHT22;16349;53.672;10.014;2023-02-04T07:02:52;1.20;99.90
29363;DHT22;16349;53.672;10.014;2023-02-04T07:05:19;1.20;99.90
29363;DHT22;16349;53.672;10.014;2023-02-04T07:07:47;1.20;99.90
29363;DHT22;16349;53.672;10.014;2023-02-04T07:10:15;1.20;99.90
29363;DHT22;16349;53.672;10.014;2023-02-04T07:12:41;1.20;99.90
29363;DHT22;16349;53.672;10.014;2023-02-04T07:15:09;1.10;99.90
29363;DHT22;16349;53.672;10.014;2023-02-04T07:17:36;1.10;99.90
29363;DHT22;16349;53.672;10.014;2023-02-04T07:20:03;1.10;99.90
29363;DHT22;16349;53.672;10.014;2023-02-04T07:22:30;1.10;99.90
29363;DHT22;16349;53.672;10.014;2023-02-04T07:24:58;1.10;99.90
29363;DHT22;16349;53.672;10.014;2023-02-04T07:27:26;1.10;99.90
29363;DHT22;16349;53.672;10.014;2023-02-04T07:29:53;1.10;99.90
29363;DHT22;16349;53.672;10.014;2023-02-04T07:32:20;1.10;99.90
29363;DHT22;16349;53.672;10.014;2023-02-04T07:34:47;1.10;99.90
29363;DHT22;16349;53.672;10.014;2023-02-04T07:37:14;1.10;99.90
29363;DHT22;16349;53.672;10.014;2023-02-04T07:39:43;1.20;99.90
29363;DHT22;16349;53.672;10.014;2023-02-04T07:42:12;1.20;99.90
29363;DHT22;16349;53.672;10.014;2023-02-04T07:44:44;1.20;99.90
29363;DHT22;16349;53.672;10.014;2023-02-04T07:47:11;1.30;99.90
29363;DHT22;16349;53.672;10.014;2023-02-04T07:49:38;1.30;99.90
29363;DHT22;16349;53.672;10.014;2023-02-04T07:52:05;1.30;99.90
29363;DHT22;16349;53.672;10.014;2023-02-04T07:54:32;1.40;99.90
29363;DHT22;16349;53.672;10.014;2023-02-04T07:56:58;1.40;99.90
29363;DHT22;16349;53.672;10.014;2023-02-04T07:59:26;1.40;99.90
29363;DHT22;16349;53.672;10.014;2023-02-04T08:01:53;1.50;99.90
29363;DHT22;16349;53.672;10.014;2023-02-04T08:04:20;1.50;99.90
29363;DHT22;16349;53.672;10.014;2023-02-04T08:06:47;1.50;99.90
29363;DHT22;16349;53.672;10.014;2023-02-04T08:09:14;1.60;99.90
29363;DHT22;16349;53.672;10.014;2023-02-04T08:11:43;1.60;99.90
29363;DHT22;16349;53.672;10.014;2023-02-04T08:14:10;1.60;99.90
29363;DHT22;16349;53.672;10.014;2023-02-04T08:16:38;1.60;99.90
29363;DHT22;16349;53.672;10.014;2023-02-04T08:19:05;1.60;99.90
29363;DHT22;16349;53.672;10.014;2023-02-04T08:21:32;1.70;99.90
29363;DHT22;16349;53.672;10.014;2023-02-04T08:23:58;1.70;99.90
29363;DHT22;16349;53.672;10.014;2023-02-04T08:26:25;1.80;99.90
29363;DHT22;16349;53.672;10.014;2023-02-04T08:28:52;1.80;99.90
29363;DHT22;16349;53.672;10.014;2023-02-04T08:31:19;1.90;99.90
29363;DHT22;16349;53.672;10.014;2023-02-04T08:33:47;2.00;99.90
29363;DHT22;16349;53.672;10.014;2023-02-04T08:36:14;2.10;99.90
29363;DHT22;16349;53.672;10.014;2023-02-04T08:38:40;2.20;99.90
29363;DHT22;16349;53.672;10.014;2023-02-04T08:41:09;2.20;99.90
29363;DHT22;16349;53.672;10.014;2023-02-04T08:43:36;2.20;99.90
29363;DHT22;16349;53.672;10.014;2023-02-04T08:46:03;2.30;99.90
29363;DHT22;16349;53.672;10.014;2023-02-04T08:48:29;2.40;99.90
29363;DHT22;16349;53.672;10.014;2023-02-04T08:50:59;2.50;99.90
29363;DHT22;16349;53.672;10.014;2023-02-04T08:53:25;2.60;99.90
29363;DHT22;16349;53.672;10.014;2023-02-04T08:55:52;2.70;99.90
29363;DHT22;16349;53.672;10.014;2023-02-04T08:58:19;2.80;99.90
29363;DHT22;16349;53.672;10.014;2023-02-04T09:00:45;3.00;99.90
29363;DHT22;16349;53.672;10.014;2023-02-04T09:03:12;3.20;99.90
29363;DHT22;16349;53.672;10.014;2023-02-04T09:05:39;3.20;99.90
29363;DHT22;16349;53.672;10.014;2023-02-04T09:08:08;3.30;99.90
29363;DHT22;16349;53.672;10.014;2023-02-04T09:10:34;3.20;99.90
29363;DHT22;16349;53.672;10.014;2023-02-04T09:13:01;3.20;99.90
29363;DHT22;16349;53.672;10.014;2023-02-04T09:15:28;3.20;99.90
29363;DHT22;16349;53.672;10.014;2023-02-04T09:17:56;3.30;99.90
29363;DHT22;16349;53.672;10.014;2023-02-04T09:20:29;3.40;99.90
29363;DHT22;16349;53.672;10.014;2023-02-04T09:22:56;3.40;99.90
29363;DHT22;16349;53.672;10.014;2023-02-04T09:25:25;3.40;99.90
29363;DHT22;16349;53.672;10.014;2023-02-04T09:27:52;3.40;99.90
29363;DHT22;16349;53.672;10.014;2023-02-04T09:30:18;3.40;99.90
29363;DHT22;16349;53.672;10.014;2023-02-04T09:33:09;3.50;99.90
29363;DHT22;16349;53.672;10.014;2023-02-04T09:35:36;3.50;99.90
29363;DHT22;16349;53.672;10.014;2023-02-04T09:38:04;3.60;99.90
29363;DHT22;16349;53.672;10.014;2023-02-04T09:40:34;3.60;99.90
29363;DHT22;16349;53.672;10.014;2023-02-04T09:43:03;3.80;99.90
29363;DHT22;16349;53.672;10.014;2023-02-04T09:45:33;3.90;99.90
29363;DHT22;16349;53.672;10.014;2023-02-04T09:48:23;3.80;99.90
29363;DHT22;16349;53.672;10.014;2023-02-04T09:50:51;3.80;99.90
29363;DHT22;16349;53.672;10.014;2023-02-04T09:53:21;3.90;99.90
29363;DHT22;16349;53.672;10.014;2023-02-04T09:55:50;3.90;99.90
29363;DHT22;16349;53.672;10.014;2023-02-04T09:58:19;4.00;99.90
29363;DHT22;16349;53.672;10.014;2023-02-04T10:00:57;4.20;99.90
29363;DHT22;16349;53.672;10.014;2023-02-04T10:03:25;4.50;99.90
29363;DHT22;16349;53.672;10.014;2023-02-04T10:05:51;4.70;99.90
29363;DHT22;16349;53.672;10.014;2023-02-04T10:08:20;4.80;99.90
29363;DHT22;16349;53.672;10.014;2023-02-04T10:10:51;4.70;99.90
29363;DHT22;16349;53.672;10.014;2023-02-04T10:13:20;4.60;99.90
29363;DHT22;16349;53.672;10.014;2023-02-04T10:15:48;4.60;99.90
29363;DHT22;16349;53.672;10.014;2023-02-04T10:18:19;4.60;99.90
29363;DHT22;16349;53.672;10.014;2023-02-04T10:20:49;4.60;99.90
29363;DHT22;16349;53.672;10.014;2023-02-04T10:23:16;4.60;99.90
29363;DHT22;16349;53.672;10.014;2023-02-04T10:25:43;4.60;99.90
29363;DHT22;16349;53.672;10.014;2023-02-04T10:28:11;4.60;99.90
29363;DHT22;16349;53.672;10.014;2023-02-04T10:30:40;4.60;99.90
29363;DHT22;16349;53.672;10.014;2023-02-04T10:33:13;4.70;99.90
29363;DHT22;16349;53.672;10.014;2023-02-04T10:35:44;4.80;99.90
29363;DHT22;16349;53.672;10.014;2023-02-04T10:38:12;4.90;99.90
29363;DHT22;16349;53.672;10.014;2023-02-04T10:40:38;5.00;99.90
29363;DHT22;16349;53.672;10.014;2023-02-04T10:43:12;5.00;99.90
29363;DHT22;16349;53.672;10.014;2023-02-04T10:45:44;5.00;99.90
29363;DHT22;16349;53.672;10.014;2023-02-04T10:48:15;4.90;99.90
29363;DHT22;16349;53.672;10.014;2023-02-04T10:50:42;5.00;99.90
29363;DHT22;16349;53.672;10.014;2023-02-04T10:53:10;5.00;99.90
29363;DHT22;16349;53.672;10.014;2023-02-04T10:55:57;5.20;99.90
29363;DHT22;16349;53.672;10.014;2023-02-04T10:58:28;5.20;99.90
29363;DHT22;16349;53.672;10.014;2023-02-04T11:00:56;5.10;99.90
29363;DHT22;16349;53.672;10.014;2023-02-04T11:03:24;5.00;99.90
29363;DHT22;16349;53.672;10.014;2023-02-04T11:05:52;5.00;99.90
29363;DHT22;16349;53.672;10.014;2023-02-04T11:08:23;5.10;99.90
29363;DHT22;16349;53.672;10.014;2023-02-04T11:10:54;5.10;99.90
29363;DHT22;16349;53.672;10.014;2023-02-04T11:13:24;5.10;99.90
29363;DHT22;16349;53.672;10.014;2023-02-04T11:16:08;5.10;99.90
29363;DHT22;16349;53.672;10.014;2023-02-04T11:18:47;5.20;99.90
29363;DHT22;16349;53.672;10.014;2023-02-04T11:21:22;5.30;99.90
29363;DHT22;16349;53.672;10.014;2023-02-04T11:23:49;5.40;99.90
29363;DHT22;16349;53.672;10.014;2023-02-04T11:26:18;5.30;99.90
29363;DHT22;16349;53.672;10.014;2023-02-04T11:29:09;5.40;99.90
29363;DHT22;16349;53.672;10.014;2023-02-04T11:31:56;5.30;99.90
29363;DHT22;16349;53.672;10.014;2023-02-04T11:34:27;5.30;99.90
29363;DHT22;16349;53.672;10.014;2023-02-04T11:37:37;5.30;99.90
29363;DHT22;16349;53.672;10.014;2023-02-04T11:40:31;5.30;99.90
29363;DHT22;16349;53.672;10.014;2023-02-04T11:43:01;5.30;99.90
29363;DHT22;16349;53.672;10.014;2023-02-04T11:45:31;5.20;99.90
29363;DHT22;16349;53.672;10.014;2023-02-04T11:48:01;5.20;99.90
29363;DHT22;16349;53.672;10.014;2023-02-04T11:50:30;5.30;99.90
29363;DHT22;16349;53.672;10.014;2023-02-04T11:52:58;5.30;99.90
29363;DHT22;16349;53.672;10.014;2023-02-04T11:55:28;5.40;99.90
29363;DHT22;16349;53.672;10.014;2023-02-04T11:57:55;5.40;99.90
29363;DHT22;16349;53.672;10.014;2023-02-04T12:00:24;5.40;99.90
29363;DHT22;16349;53.672;10.014;2023-02-04T12:02:57;5.40;99.90
29363;DHT22;16349;53.672;10.014;2023-02-04T12:05:38;5.50;99.90
29363;DHT22;16349;53.672;10.014;2023-02-04T12:08:12;5.60;99.90
29363;DHT22;16349;53.672;10.014;2023-02-04T12:10:47;5.60;99.90
29363;DHT22;16349;53.672;10.014;2023-02-04T12:13:17;5.60;99.90
29363;DHT22;16349;53.672;10.014;2023-02-04T12:15:53;5.50;99.90
29363;DHT22;16349;53.672;10.014;2023-02-04T12:18:20;5.60;99.90
29363;DHT22;16349;53.672;10.014;2023-02-04T12:20:48;5.40;99.90
29363;DHT22;16349;53.672;10.014;2023-02-04T12:23:15;5.40;99.90
29363;DHT22;16349;53.672;10.014;2023-02-04T12:25:42;5.50;99.90
29363;DHT22;16349;53.672;10.014;2023-02-04T12:28:09;5.50;99.90
29363;DHT22;16349;53.672;10.014;2023-02-04T12:30:35;5.50;99.90
29363;DHT22;16349;53.672;10.014;2023-02-04T12:33:02;5.50;99.90
29363;DHT22;16349;53.672;10.014;2023-02-04T12:35:29;5.50;99.90
29363;DHT22;16349;53.672;10.014;2023-02-04T12:37:57;5.50;99.90
29363;DHT22;16349;53.672;10.014;2023-02-04T12:40:27;5.50;99.90
29363;DHT22;16349;53.672;10.014;2023-02-04T12:42:54;5.40;99.90
29363;DHT22;16349;53.672;10.014;2023-02-04T12:45:21;5.40;99.90
29363;DHT22;16349;53.672;10.014;2023-02-04T12:47:47;5.40;99.90
29363;DHT22;16349;53.672;10.014;2023-02-04T12:50:16;5.30;99.90
29363;DHT22;16349;53.672;10.014;2023-02-04T12:52:48;5.30;99.90
29363;DHT22;16349;53.672;10.014;2023-02-04T12:55:16;5.30;99.90
29363;DHT22;16349;53.672;10.014;2023-02-04T12:57:44;5.30;99.90
29363;DHT22;16349;53.672;10.014;2023-02-04T13:00:13;5.40;99.90
29363;DHT22;16349;53.672;10.014;2023-02-04T13:03:01;5.40;99.90
29363;DHT22;16349;53.672;10.014;2023-02-04T13:05:28;5.50;99.90
29363;DHT22;16349;53.672;10.014;2023-02-04T13:07:54;5.50;99.90
29363;DHT22;16349;53.672;10.014;2023-02-04T13:10:23;5.50;99.90
29363;DHT22;16349;53.672;10.014;2023-02-04T13:12:53;5.60;99.90
29363;DHT22;16349;53.672;10.014;2023-02-04T13:15:19;5.60;99.90
29363;DHT22;16349;53.672;10.014;2023-02-04T13:17:46;5.70;99.90
29363;DHT22;16349;53.672;10.014;2023-02-04T13:20:12;5.70;99.90
29363;DHT22;16349;53.672;10.014;2023-02-04T13:22:42;5.80;99.90
29363;DHT22;16349;53.672;10.014;2023-02-04T13:25:10;5.80;99.90
29363;DHT22;16349;53.672;10.014;2023-02-04T13:27:39;5.90;99.90
29363;DHT22;16349;53.672;10.014;2023-02-04T13:30:07;6.00;99.90
29363;DHT22;16349;53.672;10.014;2023-02-04T13:32:34;6.00;99.90
29363;DHT22;16349;53.672;10.014;2023-02-04T13:35:02;5.90;99.90
29363;DHT22;16349;53.672;10.014;2023-02-04T13:37:29;5.90;99.90
29363;DHT22;16349;53.672;10.014;2023-02-04T13:39:56;5.90;99.90
29363;DHT22;16349;53.672;10.014;2023-02-04T13:42:22;5.90;99.90
29363;DHT22;16349;53.672;10.014;2023-02-04T13:44:50;5.80;99.90
29363;DHT22;16349;53.672;10.014;2023-02-04T13:47:19;5.80;99.90
29363;DHT22;16349;53.672;10.014;2023-02-04T13:49:46;5.80;99.90
29363;DHT22;16349;53.672;10.014;2023-02-04T13:52:13;5.80;99.90
29363;DHT22;16349;53.672;10.014;2023-02-04T13:54:43;5.80;99.90
29363;DHT22;16349;53.672;10.014;2023-02-04T13:57:10;5.80;99.90
29363;DHT22;16349;53.672;10.014;2023-02-04T13:59:36;5.80;99.90
29363;DHT22;16349;53.672;10.014;2023-02-04T14:02:05;5.90;99.90
29363;DHT22;16349;53.672;10.014;2023-02-04T14:04:32;5.90;99.90
29363;DHT22;16349;53.672;10.014;2023-02-04T14:07:02;5.90;99.90
29363;DHT22;16349;53.672;10.014;2023-02-04T14:09:29;5.80;99.90
29363;DHT22;16349;53.672;10.014;2023-02-04T14:11:56;5.90;99.90
29363;DHT22;16349;53.672;10.014;2023-02-04T14:14:22;5.80;99.90
29363;DHT22;16349;53.672;10.014;2023-02-04T14:16:49;5.70;99.90
29363;DHT22;16349;53.672;10.014;2023-02-04T14:19:17;5.70;99.90
29363;DHT22;16349;53.672;10.014;2023-02-04T14:21:44;5.60;99.90
29363;DHT22;16349;53.672;10.014;2023-02-04T14:24:13;5.50;99.90
29363;DHT22;16349;53.672;10.014;2023-02-04T14:26:41;5.50;99.90
29363;DHT22;16349;53.672;10.014;2023-02-04T14:29:08;5.50;99.90
29363;DHT22;16349;53.672;10.014;2023-02-04T14:31:36;5.50;99.90
29363;DHT22;16349;53.672;10.014;2023-02-04T14:34:03;5.50;99.90
29363;DHT22;16349;53.672;10.014;2023-02-04T14:36:32;5.50;99.90
29363;DHT22;16349;53.672;10.014;2023-02-04T14:38:59;5.40;99.90
29363;DHT22;16349;53.672;10.014;2023-02-04T14:41:26;5.30;99.90
29363;DHT22;16349;53.672;10.014;2023-02-04T14:43:54;5.30;99.90
29363;DHT22;16349;53.672;10.014;2023-02-04T14:46:21;5.30;99.90
29363;DHT22;16349;53.672;10.014;2023-02-04T14:48:48;5.20;99.90
29363;DHT22;16349;53.672;10.014;2023-02-04T14:51:16;5.20;99.90
29363;DHT22;16349;53.672;10.014;2023-02-04T14:53:45;5.20;99.90
29363;DHT22;16349;53.672;10.014;2023-02-04T14:56:12;5.10;99.90
29363;DHT22;16349;53.672;10.014;2023-02-04T14:58:39;5.10;99.90
29363;DHT22;16349;53.672;10.014;2023-02-04T15:01:06;5.10;99.90
29363;DHT22;16349;53.672;10.014;2023-02-04T15:03:33;5.10;99.90
29363;DHT22;16349;53.672;10.014;2023-02-04T15:05:59;5.00;99.90
29363;DHT22;16349;53.672;10.014;2023-02-04T15:08:50;5.10;99.90
29363;DHT22;16349;53.672;10.014;2023-02-04T15:11:17;5.10;99.90
29363;DHT22;16349;53.672;10.014;2023-02-04T15:13:44;5.00;99.90
29363;DHT22;16349;53.672;10.014;2023-02-04T15:16:11;4.90;99.90
29363;DHT22;16349;53.672;10.014;2023-02-04T15:18:39;4.90;99.90
29363;DHT22;16349;53.672;10.014;2023-02-04T15:21:05;4.80;99.90
29363;DHT22;16349;53.672;10.014;2023-02-04T15:23:32;4.80;99.90
29363;DHT22;16349;53.672;10.014;2023-02-04T15:26:01;4.80;99.90
29363;DHT22;16349;53.672;10.014;2023-02-04T15:28:28;4.80;99.90
29363;DHT22;16349;53.672;10.014;2023-02-04T15:30:55;4.70;99.90
29363;DHT22;16349;53.672;10.014;2023-02-04T15:33:22;4.70;99.90
29363;DHT22;16349;53.672;10.014;2023-02-04T15:35:49;4.60;99.90
29363;DHT22;16349;53.672;10.014;2023-02-04T15:38:16;4.60;99.90